Time;durP1;ratioP1;P1;durP2;ratioP2;P2;SDS_P1;SDS_P2;PMS_P1;PMS_P2;Temp;Humidity;BMP_temperature;BMP_pressure;BME280_temperature;BME280_humidity;BME280_pressure;Samples;Min_cycle;Max_cycle;Signal;HPM_P1;HPM_P2
2022/07/15 00:00:15;;;;;;;3.30;1.27;;;;;;;;;;509345;29;1409;-88
2022/07/15 00:00:31;;;;;;;3.22;1.42;;;;;;;;;;510006;29;869;-88
2022/07/15 00:00:46;;;;;;;3.97;1.50;;;;;;;;;;512100;29;797;-88
2022/07/15 00:01:02;;;;;;;4.07;1.50;;;;;;;;;;511930;28;1298;-88
2022/07/15 00:01:17;;;;;;;3.67;1.60;;;;;;;;;;511985;29;1015;-88
2022/07/15 00:01:33;;;;;;;3.88;1.50;;;;;;;;;;511376;29;877;-87
2022/07/15 00:01:49;;;;;;;4.13;1.35;;;;;;;;;;511778;29;1234;-88
2022/07/15 00:02:05;;;;;;;4.33;1.40;;;;;;;;;;511337;29;1039;-87
2022/07/15 00:02:23;;;;;;;4.80;1.45;;;;;;;;;;510135;29;1044;-88
2022/07/15 00:02:38;;;;;;;3.58;1.50;;;;;;;;;;510061;29;911;-88
2022/07/15 00:02:54;;;;;;;4.53;1.40;;;;;;;;;;510049;29;1192;-88
2022/07/15 00:03:09;;;;;;;5.30;1.50;;;;;;;;;;510157;29;805;-87
2022/07/15 00:03:25;;;;;;;5.20;1.50;;;;;;;;;;508065;29;1218;-88
2022/07/15 00:03:40;;;;;;;4.63;1.27;;;;;;;;;;509984;29;1297;-88
2022/07/15 00:03:55;;;;;;;3.70;1.33;;;;;;;;;;510082;29;917;-88
2022/07/15 00:04:11;;;;;;;3.03;1.45;;;;;;;;;;510071;29;1210;-88
2022/07/15 00:04:26;;;;;;;3.87;1.50;;;;;;;;;;510061;29;1188;-88
2022/07/15 00:04:42;;;;;;;4.65;1.70;;;;;;;;;;510062;29;876;-88
2022/07/15 00:04:57;;;;;;;3.80;1.53;;;;;;;;;;508467;29;877;-88
2022/07/15 00:05:12;;;;;;;3.50;1.40;;;;;;;;;;508065;29;1156;-88
2022/07/15 00:05:28;;;;;;;3.03;1.23;;;;;;;;;;510055;29;912;-88
2022/07/15 00:05:45;;;;;;;2.67;1.30;;;;;;;;;;508166;29;1095;-88
2022/07/15 00:06:00;;;;;;;2.97;1.50;;;;;;;;;;509876;29;1402;-88
2022/07/15 00:06:15;;;;;;;3.80;1.40;;;;;;;;;;509857;29;1165;-88
2022/07/15 00:06:31;;;;;;;4.13;1.42;;;;;;;;;;509805;29;1307;-89
2022/07/15 00:06:46;;;;;;;3.33;1.50;;;;;;;;;;509663;29;1178;-88
2022/07/15 00:07:03;;;;;;;4.75;1.50;;;;;;;;;;507538;29;1195;-89
2022/07/15 00:07:20;;;;;;;4.97;1.40;;;;;;;;;;507803;29;1228;-88
2022/07/15 00:07:37;;;;;;;2.95;1.20;;;;;;;;;;505801;29;1257;-88
2022/07/15 00:07:52;;;;;;;3.72;1.40;;;;;;;;;;506092;29;1047;-88
2022/07/15 00:08:08;;;;;;;4.40;1.40;;;;;;;;;;508060;29;1174;-88
2022/07/15 00:08:23;;;;;;;4.22;1.40;;;;;;;;;;508147;29;1182;-88
2022/07/15 00:08:38;;;;;;;4.60;1.40;;;;;;;;;;508362;29;790;-88
2022/07/15 00:08:54;;;;;;;5.63;1.40;;;;;;;;;;508349;29;1087;-88
2022/07/15 00:09:10;;;;;;;5.68;1.50;;;;;;;;;;508309;29;1272;-88
2022/07/15 00:10:14;;;;;;;3.58;1.38;;;;;;;;;;509401;29;750;-88
2022/07/15 00:10:30;;;;;;;2.83;1.40;;;;;;;;;;512019;29;944;-89
2022/07/15 00:10:45;;;;;;;2.30;1.40;;;;;;;;;;510029;29;1294;-88
2022/07/15 00:11:01;;;;;;;2.70;1.40;;;;;;;;;;509876;29;786;-88
2022/07/15 00:11:16;;;;;;;3.40;1.50;;;;;;;;;;510034;29;996;-88
2022/07/15 00:11:31;;;;;;;3.53;1.47;;;;;;;;;;510193;29;826;-88
2022/07/15 00:11:47;;;;;;;3.88;1.40;;;;;;;;;;509856;29;1944;-88
2022/07/15 00:12:03;;;;;;;5.07;1.33;;;;;;;;;;510327;29;1003;-88
2022/07/15 00:12:18;;;;;;;6.00;1.40;;;;;;;;;;510376;29;1272;-88
2022/07/15 00:12:34;;;;;;;4.70;1.50;;;;;;;;;;510602;29;1171;-88
2022/07/15 00:12:55;;;;;;;4.30;1.50;;;;;;;;;;512442;29;956;-88
2022/07/15 00:13:10;;;;;;;4.35;1.48;;;;;;;;;;512255;29;865;-87
2022/07/15 00:13:26;;;;;;;3.58;1.35;;;;;;;;;;513618;28;1373;-88
2022/07/15 00:13:41;;;;;;;2.83;1.27;;;;;;;;;;513105;28;904;-88
2022/07/15 00:13:57;;;;;;;2.67;1.40;;;;;;;;;;512096;29;1496;-88
2022/07/15 00:14:12;;;;;;;2.85;1.50;;;;;;;;;;512225;29;1015;-88
2022/07/15 00:14:28;;;;;;;3.33;1.40;;;;;;;;;;510193;29;1197;-88
2022/07/15 00:14:44;;;;;;;3.93;1.40;;;;;;;;;;510243;29;888;-88
2022/07/15 00:14:59;;;;;;;3.90;1.38;;;;;;;;;;509986;29;1256;-88
2022/07/15 00:15:16;;;;;;;3.30;1.40;;;;;;;;;;510106;29;829;-88
2022/07/15 00:15:31;;;;;;;3.63;1.38;;;;;;;;;;510114;29;1343;-88
2022/07/15 00:15:47;;;;;;;3.55;1.40;;;;;;;;;;510200;29;1213;-88
2022/07/15 00:16:02;;;;;;;3.80;1.50;;;;;;;;;;510197;29;872;-88
2022/07/15 00:16:18;;;;;;;3.50;1.50;;;;;;;;;;510629;29;1158;-88
2022/07/15 00:16:33;;;;;;;2.85;1.40;;;;;;;;;;512022;29;1288;-88
2022/07/15 00:16:48;;;;;;;4.10;1.40;;;;;;;;;;510174;29;1287;-88
2022/07/15 00:17:06;;;;;;;4.45;1.30;;;;;;;;;;510384;29;885;-88
2022/07/15 00:17:21;;;;;;;3.20;1.42;;;;;;;;;;510395;29;790;-88
2022/07/15 00:17:37;;;;;;;3.50;1.50;;;;;;;;;;509808;29;1314;-88
2022/07/15 00:17:53;;;;;;;2.88;1.38;;;;;;;;;;510129;29;1170;-88
2022/07/15 00:18:08;;;;;;;3.45;1.42;;;;;;;;;;510296;29;809;-88
2022/07/15 00:18:23;;;;;;;4.63;1.50;;;;;;;;;;510352;29;1196;-88
2022/07/15 00:18:40;;;;;;;4.80;1.50;;;;;;;;;;510205;29;1274;-89
2022/07/15 00:18:56;;;;;;;4.07;1.40;;;;;;;;;;510244;29;1407;-88
2022/07/15 00:19:11;;;;;;;4.40;1.50;;;;;;;;;;510100;29;1289;-88
2022/07/15 00:19:26;;;;;;;3.83;1.50;;;;;;;;;;512129;29;1304;-89
2022/07/15 00:19:42;;;;;;;4.43;1.53;;;;;;;;;;510198;29;1273;-88
2022/07/15 00:19:57;;;;;;;4.78;1.52;;;;;;;;;;510110;29;1008;-88
2022/07/15 00:20:16;;;;;;;4.00;1.50;;;;;;;;;;506123;29;1324;-88
2022/07/15 00:20:36;;;;;;;3.88;1.42;;;;;;;;;;506291;29;1087;-88
2022/07/15 00:20:51;;;;;;;3.78;1.40;;;;;;;;;;508150;29;1390;-88
2022/07/15 00:21:07;;;;;;;3.80;1.60;;;;;;;;;;506196;29;1275;-87
2022/07/15 00:21:22;;;;;;;4.38;1.65;;;;;;;;;;507456;29;1230;-87
2022/07/15 00:21:38;;;;;;;4.40;1.60;;;;;;;;;;509189;29;1321;-88
2022/07/15 00:21:53;;;;;;;4.13;1.60;;;;;;;;;;506013;29;1474;-87
2022/07/15 00:22:09;;;;;;;3.80;1.40;;;;;;;;;;508107;29;1407;-88
2022/07/15 00:22:24;;;;;;;2.60;1.23;;;;;;;;;;506867;29;921;-87
2022/07/15 00:22:41;;;;;;;2.60;1.40;;;;;;;;;;506631;29;929;-87
2022/07/15 00:22:56;;;;;;;4.35;1.50;;;;;;;;;;510710;29;1425;-87
2022/07/15 00:23:12;;;;;;;6.30;1.70;;;;;;;;;;512222;29;1321;-87
2022/07/15 00:23:28;;;;;;;5.30;1.80;;;;;;;;;;510245;29;1296;-87
2022/07/15 00:23:43;;;;;;;3.05;1.48;;;;;;;;;;510375;29;829;-88
2022/07/15 00:23:59;;;;;;;4.27;1.50;;;;;;;;;;510236;29;992;-87
2022/07/15 00:24:14;;;;;;;4.80;1.50;;;;;;;;;;510304;29;857;-87
2022/07/15 00:24:29;;;;;;;5.87;1.50;;;;;;;;;;510111;29;1011;-87
2022/07/15 00:24:45;;;;;;;6.43;1.70;;;;;;;;;;509590;29;1313;-88
2022/07/15 00:25:00;;;;;;;4.07;1.70;;;;;;;;;;507987;29;1342;-88
2022/07/15 00:25:16;;;;;;;2.63;1.40;;;;;;;;;;508077;29;1269;-88
2022/07/15 00:25:33;;;;;;;2.78;1.30;;;;;;;;;;508035;29;1122;-87
2022/07/15 00:25:48;;;;;;;4.45;1.30;;;;;;;;;;508099;29;1091;-88
2022/07/15 00:26:04;;;;;;;4.67;1.37;;;;;;;;;;506193;29;1159;-88
2022/07/15 00:26:20;;;;;;;3.72;1.50;;;;;;;;;;508099;29;1380;-87
2022/07/15 00:26:38;;;;;;;4.32;1.50;;;;;;;;;;508732;29;1223;-88
2022/07/15 00:26:54;;;;;;;4.45;1.55;;;;;;;;;;510181;29;1047;-87
2022/07/15 00:27:09;;;;;;;4.07;1.60;;;;;;;;;;509273;29;834;-86
2022/07/15 00:27:25;;;;;;;4.13;1.40;;;;;;;;;;510305;29;1308;-86
2022/07/15 00:27:58;;;;;;;3.33;1.20;;;;;;;;;;510215;29;833;-86
2022/07/15 00:28:13;;;;;;;3.10;1.50;;;;;;;;;;510087;29;888;-86
2022/07/15 00:28:28;;;;;;;3.93;1.50;;;;;;;;;;510174;29;797;-86
2022/07/15 00:28:44;;;;;;;3.40;1.40;;;;;;;;;;508345;29;1399;-86
2022/07/15 00:28:59;;;;;;;4.18;1.48;;;;;;;;;;506645;29;1170;-86
2022/07/15 00:29:14;;;;;;;4.80;1.40;;;;;;;;;;506384;29;1191;-86
2022/07/15 00:29:31;;;;;;;3.43;1.30;;;;;;;;;;506403;29;968;-86
2022/07/15 00:29:46;;;;;;;3.97;1.30;;;;;;;;;;505666;29;1331;-87
2022/07/15 00:30:04;;;;;;;4.30;1.40;;;;;;;;;;506372;29;1152;-87
2022/07/15 00:30:20;;;;;;;4.43;1.40;;;;;;;;;;504291;29;1282;-86
2022/07/15 00:30:38;;;;;;;4.05;1.40;;;;;;;;;;505093;29;916;-86
2022/07/15 00:30:55;;;;;;;3.83;1.30;;;;;;;;;;506411;29;1226;-86
2022/07/15 00:31:10;;;;;;;3.92;1.38;;;;;;;;;;507663;29;1315;-86
2022/07/15 00:31:26;;;;;;;3.90;1.37;;;;;;;;;;508245;29;1150;-86
2022/07/15 00:31:41;;;;;;;4.30;1.40;;;;;;;;;;510209;29;1914;-86
2022/07/15 00:31:57;;;;;;;4.57;1.33;;;;;;;;;;510292;29;971;-86
2022/07/15 00:32:12;;;;;;;3.42;1.30;;;;;;;;;;511072;29;877;-87
2022/07/15 00:32:28;;;;;;;3.60;1.30;;;;;;;;;;512095;29;805;-87
2022/07/15 00:32:43;;;;;;;3.33;1.23;;;;;;;;;;511548;29;1170;-87
2022/07/15 00:33:00;;;;;;;2.87;1.27;;;;;;;;;;510158;29;870;-86
2022/07/15 00:33:15;;;;;;;4.03;1.35;;;;;;;;;;510779;29;913;-87
2022/07/15 00:33:31;;;;;;;4.03;1.47;;;;;;;;;;510118;29;1261;-86
2022/07/15 00:33:47;;;;;;;3.50;1.35;;;;;;;;;;508076;29;1195;-86
2022/07/15 00:34:03;;;;;;;3.05;1.17;;;;;;;;;;508167;29;1233;-86
2022/07/15 00:34:19;;;;;;;4.15;1.30;;;;;;;;;;508360;29;849;-87
2022/07/15 00:34:34;;;;;;;4.27;1.40;;;;;;;;;;507662;29;1185;-87
2022/07/15 00:34:51;;;;;;;2.72;1.30;;;;;;;;;;506264;29;873;-87
2022/07/15 00:35:07;;;;;;;3.50;1.40;;;;;;;;;;506378;29;917;-86
2022/07/15 00:35:22;;;;;;;4.03;1.45;;;;;;;;;;508868;29;1473;-86
2022/07/15 00:35:39;;;;;;;5.23;1.50;;;;;;;;;;510947;29;852;-87
2022/07/15 00:35:54;;;;;;;4.65;1.40;;;;;;;;;;512485;29;929;-86
2022/07/15 00:36:10;;;;;;;2.93;1.27;;;;;;;;;;510469;29;1179;-87
2022/07/15 00:36:25;;;;;;;4.20;1.30;;;;;;;;;;508323;29;1298;-86
2022/07/15 00:36:41;;;;;;;4.40;1.50;;;;;;;;;;508453;29;866;-86
2022/07/15 00:36:56;;;;;;;3.83;1.40;;;;;;;;;;510384;29;1241;-87
2022/07/15 00:37:12;;;;;;;4.82;1.33;;;;;;;;;;510277;29;960;-86
2022/07/15 00:37:27;;;;;;;3.73;1.30;;;;;;;;;;510288;29;1328;-86
2022/07/15 00:37:42;;;;;;;2.83;1.23;;;;;;;;;;510440;29;991;-86
2022/07/15 00:37:58;;;;;;;4.03;1.37;;;;;;;;;;510083;29;889;-86
2022/07/15 00:38:14;;;;;;;5.28;1.55;;;;;;;;;;510090;29;1278;-87
2022/07/15 00:38:29;;;;;;;4.27;1.50;;;;;;;;;;509182;29;1603;-87
2022/07/15 00:38:44;;;;;;;3.25;1.23;;;;;;;;;;510230;29;1464;-86
2022/07/15 00:39:00;;;;;;;2.93;1.30;;;;;;;;;;511996;29;1347;-86
2022/07/15 00:39:16;;;;;;;2.58;1.40;;;;;;;;;;512200;29;1277;-86
2022/07/15 00:39:31;;;;;;;2.67;1.40;;;;;;;;;;512068;29;1272;-86
2022/07/15 00:39:47;;;;;;;2.87;1.40;;;;;;;;;;512192;29;1174;-86
2022/07/15 00:40:02;;;;;;;2.80;1.40;;;;;;;;;;511982;29;1263;-86
2022/07/15 00:40:18;;;;;;;2.75;1.30;;;;;;;;;;512009;28;1349;-86
2022/07/15 00:40:40;;;;;;;3.50;1.25;;;;;;;;;;511720;29;1205;-86
2022/07/15 00:40:55;;;;;;;4.88;1.17;;;;;;;;;;510110;29;1077;-86
2022/07/15 00:41:11;;;;;;;5.03;1.40;;;;;;;;;;509945;29;1202;-86
2022/07/15 00:41:26;;;;;;;3.30;1.40;;;;;;;;;;508833;29;1225;-86
2022/07/15 00:41:43;;;;;;;2.88;1.27;;;;;;;;;;507942;29;881;-86
2022/07/15 00:41:58;;;;;;;4.03;1.40;;;;;;;;;;509785;29;1350;-86
2022/07/15 00:42:48;;;;;;;3.28;1.20;;;;;;;;;;510103;29;728;-86
2022/07/15 00:43:03;;;;;;;3.30;1.10;;;;;;;;;;510185;29;1085;-85
2022/07/15 00:43:19;;;;;;;3.17;1.20;;;;;;;;;;510943;29;1172;-86
2022/07/15 00:43:35;;;;;;;3.90;1.30;;;;;;;;;;512016;29;1355;-86
2022/07/15 00:43:50;;;;;;;3.80;1.20;;;;;;;;;;511313;29;1166;-86
2022/07/15 00:44:06;;;;;;;3.00;1.30;;;;;;;;;;508209;29;1190;-86
2022/07/15 00:44:21;;;;;;;3.58;1.35;;;;;;;;;;509878;29;1166;-87
2022/07/15 00:44:42;;;;;;;4.13;1.30;;;;;;;;;;510076;29;1026;-86
2022/07/15 00:44:58;;;;;;;2.90;1.20;;;;;;;;;;510057;29;913;-86
2022/07/15 00:45:18;;;;;;;2.60;1.20;;;;;;;;;;510080;29;1306;-86
2022/07/15 00:45:33;;;;;;;3.40;1.30;;;;;;;;;;510244;29;858;-86
2022/07/15 00:45:49;;;;;;;4.18;1.40;;;;;;;;;;508515;29;1308;-86
2022/07/15 00:46:04;;;;;;;3.83;1.33;;;;;;;;;;511523;29;1181;-86
2022/07/15 00:46:20;;;;;;;2.70;1.20;;;;;;;;;;510497;29;1015;-86
2022/07/15 00:46:36;;;;;;;2.85;1.27;;;;;;;;;;510097;29;841;-86
2022/07/15 00:46:53;;;;;;;4.28;1.40;;;;;;;;;;510040;29;936;-86
2022/07/15 00:47:08;;;;;;;3.70;1.30;;;;;;;;;;508983;29;995;-86
2022/07/15 00:47:23;;;;;;;3.08;1.48;;;;;;;;;;508569;29;1149;-86
2022/07/15 00:47:47;;;;;;;4.67;1.60;;;;;;;;;;509834;29;892;-86
2022/07/15 00:48:02;;;;;;;5.15;1.30;;;;;;;;;;507863;29;1409;-86
2022/07/15 00:48:18;;;;;;;3.38;1.20;;;;;;;;;;508097;29;1312;-86
2022/07/15 00:48:33;;;;;;;3.40;1.27;;;;;;;;;;506942;29;929;-86
2022/07/15 00:48:49;;;;;;;3.70;1.27;;;;;;;;;;506341;29;763;-86
2022/07/15 00:49:07;;;;;;;3.85;1.30;;;;;;;;;;506121;29;1289;-86
2022/07/15 00:49:22;;;;;;;4.82;1.40;;;;;;;;;;507872;29;1444;-86
2022/07/15 00:49:38;;;;;;;4.73;1.50;;;;;;;;;;508199;29;818;-86
2022/07/15 00:49:53;;;;;;;4.60;1.40;;;;;;;;;;508850;29;893;-86
2022/07/15 00:50:09;;;;;;;3.95;1.30;;;;;;;;;;510617;29;897;-86
2022/07/15 00:50:27;;;;;;;3.83;1.40;;;;;;;;;;510042;29;1196;-86
2022/07/15 00:50:42;;;;;;;4.10;1.38;;;;;;;;;;511987;29;1273;-86
2022/07/15 00:50:58;;;;;;;3.20;1.30;;;;;;;;;;511053;29;900;-86
2022/07/15 00:51:13;;;;;;;3.38;1.40;;;;;;;;;;510739;29;941;-86
2022/07/15 00:51:42;;;;;;;3.40;1.43;;;;;;;;;;512028;29;758;-86
2022/07/15 00:52:00;;;;;;;3.53;1.30;;;;;;;;;;512093;29;929;-86
2022/07/15 00:52:18;;;;;;;5.57;1.40;;;;;;;;;;512296;29;1071;-86
2022/07/15 00:52:38;;;;;;;6.20;1.30;;;;;;;;;;511366;29;1325;-86
2022/07/15 00:53:07;;;;;;;3.92;1.20;;;;;;;;;;510149;29;872;-86
2022/07/15 00:53:23;;;;;;;5.75;1.38;;;;;;;;;;507953;29;1376;-86
2022/07/15 00:53:39;;;;;;;4.33;1.40;;;;;;;;;;506221;29;1284;-86
2022/07/15 00:53:55;;;;;;;3.13;1.30;;;;;;;;;;506417;29;846;-86
2022/07/15 00:54:13;;;;;;;3.22;1.23;;;;;;;;;;508199;29;1183;-86
2022/07/15 00:54:29;;;;;;;3.50;1.30;;;;;;;;;;508217;29;1479;-86
2022/07/15 00:54:46;;;;;;;3.33;1.30;;;;;;;;;;508175;29;1174;-86
2022/07/15 00:55:06;;;;;;;3.60;1.45;;;;;;;;;;508717;29;1198;-86
2022/07/15 00:55:22;;;;;;;2.92;1.30;;;;;;;;;;509999;29;1417;-87
2022/07/15 00:55:41;;;;;;;2.95;1.20;;;;;;;;;;509946;29;1261;-86
2022/07/15 00:55:59;;;;;;;3.00;1.20;;;;;;;;;;509993;29;1047;-86
2022/07/15 00:56:16;;;;;;;4.63;1.25;;;;;;;;;;509954;29;1388;-86
2022/07/15 00:56:36;;;;;;;5.47;1.30;;;;;;;;;;508198;29;956;-87
2022/07/15 00:56:56;;;;;;;4.20;1.35;;;;;;;;;;510511;29;1135;-86
2022/07/15 00:57:12;;;;;;;3.70;1.40;;;;;;;;;;509969;29;1464;-86
2022/07/15 00:57:29;;;;;;;4.18;1.35;;;;;;;;;;510026;29;1000;-85
2022/07/15 00:57:45;;;;;;;4.30;1.50;;;;;;;;;;509971;29;1441;-86
2022/07/15 00:58:03;;;;;;;4.00;1.60;;;;;;;;;;508032;29;1290;-85
2022/07/15 00:58:23;;;;;;;4.80;1.50;;;;;;;;;;507841;29;1375;-85
2022/07/15 00:58:41;;;;;;;5.38;1.55;;;;;;;;;;506040;29;1238;-85
2022/07/15 00:58:57;;;;;;;5.45;1.50;;;;;;;;;;508027;29;1361;-85
2022/07/15 00:59:15;;;;;;;4.50;1.40;;;;;;;;;;510048;29;786;-86
2022/07/15 00:59:32;;;;;;;5.60;1.50;;;;;;;;;;510086;29;953;-86
2022/07/15 00:59:48;;;;;;;6.28;1.50;;;;;;;;;;510327;29;854;-86
2022/07/15 01:00:04;;;;;;;4.20;1.50;;;;;;;;;;511917;29;1269;-86
2022/07/15 01:00:21;;;;;;;4.85;1.63;;;;;;;;;;511904;28;1651;-85
2022/07/15 01:00:36;;;;;;;4.82;1.60;;;;;;;;;;511937;28;1820;-85
2022/07/15 01:00:53;;;;;;;5.30;1.45;;;;;;;;;;512094;29;921;-85
2022/07/15 01:01:10;;;;;;;4.93;1.45;;;;;;;;;;512190;29;1268;-86
2022/07/15 01:01:25;;;;;;;3.90;1.50;;;;;;;;;;510210;29;1344;-86
2022/07/15 01:01:42;;;;;;;4.30;1.77;;;;;;;;;;510169;29;1259;-86
2022/07/15 01:01:57;;;;;;;4.93;1.60;;;;;;;;;;509085;29;1363;-86
2022/07/15 01:02:14;;;;;;;3.90;1.40;;;;;;;;;;505503;29;1281;-86
2022/07/15 01:02:31;;;;;;;4.43;1.50;;;;;;;;;;505212;29;898;-86
2022/07/15 01:02:50;;;;;;;5.05;1.40;;;;;;;;;;506324;29;928;-86
2022/07/15 01:03:07;;;;;;;4.57;1.40;;;;;;;;;;506791;29;1308;-86
2022/07/15 01:03:22;;;;;;;4.03;1.40;;;;;;;;;;507749;29;928;-85
2022/07/15 01:03:38;;;;;;;6.80;1.52;;;;;;;;;;508064;29;885;-86
2022/07/15 01:03:54;;;;;;;6.43;1.50;;;;;;;;;;509372;29;1012;-86
2022/07/15 01:04:12;;;;;;;3.55;1.30;;;;;;;;;;510234;29;1079;-86
2022/07/15 01:04:29;;;;;;;3.83;1.40;;;;;;;;;;510420;29;893;-86
2022/07/15 01:04:45;;;;;;;3.92;1.45;;;;;;;;;;510282;29;1387;-86
2022/07/15 01:05:04;;;;;;;3.50;1.40;;;;;;;;;;510304;29;976;-86
2022/07/15 01:05:20;;;;;;;3.58;1.30;;;;;;;;;;510239;29;1100;-86
2022/07/15 01:05:37;;;;;;;3.50;1.38;;;;;;;;;;510084;29;1209;-86
2022/07/15 01:05:54;;;;;;;3.08;1.40;;;;;;;;;;510052;29;1213;-86
2022/07/15 01:06:09;;;;;;;2.92;1.30;;;;;;;;;;510177;29;861;-86
2022/07/15 01:06:26;;;;;;;2.80;1.30;;;;;;;;;;512144;29;1298;-86
2022/07/15 01:06:42;;;;;;;2.92;1.40;;;;;;;;;;512208;29;1335;-86
2022/07/15 01:06:57;;;;;;;4.28;1.50;;;;;;;;;;512272;29;959;-86
2022/07/15 01:07:13;;;;;;;5.03;1.70;;;;;;;;;;512330;29;992;-86
2022/07/15 01:07:29;;;;;;;3.17;1.45;;;;;;;;;;512132;29;1066;-85
2022/07/15 01:07:45;;;;;;;3.07;1.30;;;;;;;;;;511307;29;1213;-85
2022/07/15 01:08:01;;;;;;;3.47;1.50;;;;;;;;;;509976;29;1187;-86
2022/07/15 01:08:17;;;;;;;3.40;1.50;;;;;;;;;;509224;29;822;-86
2022/07/15 01:08:33;;;;;;;3.60;1.33;;;;;;;;;;508794;29;964;-86
2022/07/15 01:08:50;;;;;;;2.97;1.30;;;;;;;;;;510092;29;758;-86
2022/07/15 01:09:05;;;;;;;2.42;1.20;;;;;;;;;;511843;29;1327;-85
2022/07/15 01:09:21;;;;;;;3.40;1.40;;;;;;;;;;513605;28;1229;-86
2022/07/15 01:09:36;;;;;;;4.17;1.50;;;;;;;;;;511108;29;1170;-86
2022/07/15 01:09:52;;;;;;;3.72;1.48;;;;;;;;;;509992;29;979;-85
2022/07/15 01:10:08;;;;;;;4.37;1.30;;;;;;;;;;510006;29;905;-86
2022/07/15 01:10:24;;;;;;;5.00;1.27;;;;;;;;;;508006;29;1614;-86
2022/07/15 01:10:40;;;;;;;5.00;1.40;;;;;;;;;;508021;29;1304;-85
2022/07/15 01:10:56;;;;;;;4.53;1.65;;;;;;;;;;508231;29;873;-86
2022/07/15 01:11:13;;;;;;;2.87;1.40;;;;;;;;;;510130;29;1384;-86
2022/07/15 01:11:31;;;;;;;3.17;1.30;;;;;;;;;;510163;29;1115;-86
2022/07/15 01:11:47;;;;;;;3.55;1.50;;;;;;;;;;510146;29;1978;-86
2022/07/15 01:12:03;;;;;;;3.40;1.40;;;;;;;;;;510346;29;861;-86
2022/07/15 01:12:18;;;;;;;3.70;1.40;;;;;;;;;;509835;29;1051;-86
2022/07/15 01:12:37;;;;;;;3.78;1.52;;;;;;;;;;508817;29;987;-86
2022/07/15 01:12:53;;;;;;;5.50;1.50;;;;;;;;;;507985;29;877;-86
2022/07/15 01:13:08;;;;;;;3.38;1.40;;;;;;;;;;507834;29;1441;-85
2022/07/15 01:13:24;;;;;;;3.17;1.43;;;;;;;;;;508100;29;972;-85
2022/07/15 01:13:39;;;;;;;2.42;1.33;;;;;;;;;;508927;29;902;-85
2022/07/15 01:13:55;;;;;;;2.97;1.40;;;;;;;;;;509969;29;901;-86
2022/07/15 01:14:10;;;;;;;3.80;1.57;;;;;;;;;;510215;29;797;-86
2022/07/15 01:14:26;;;;;;;3.78;1.45;;;;;;;;;;510228;29;869;-86
2022/07/15 01:14:41;;;;;;;3.97;1.40;;;;;;;;;;509937;29;1165;-86
2022/07/15 01:14:57;;;;;;;5.03;1.60;;;;;;;;;;510385;29;1219;-86
2022/07/15 01:15:13;;;;;;;4.45;1.58;;;;;;;;;;512089;29;841;-86
2022/07/15 01:15:31;;;;;;;2.75;1.27;;;;;;;;;;511773;29;1198;-86
2022/07/15 01:15:48;;;;;;;4.40;1.40;;;;;;;;;;509857;29;1368;-86
2022/07/15 01:16:04;;;;;;;3.67;1.50;;;;;;;;;;510156;29;873;-86
2022/07/15 01:16:19;;;;;;;2.55;1.42;;;;;;;;;;509957;29;1235;-86
2022/07/15 01:16:35;;;;;;;3.60;1.40;;;;;;;;;;509205;29;1198;-86
2022/07/15 01:16:50;;;;;;;3.50;1.33;;;;;;;;;;509963;29;1556;-86
2022/07/15 01:17:11;;;;;;;4.50;1.40;;;;;;;;;;510016;29;909;-85
2022/07/15 01:17:27;;;;;;;4.95;1.60;;;;;;;;;;511678;29;1075;-86
2022/07/15 01:17:44;;;;;;;4.07;1.50;;;;;;;;;;512045;29;944;-85
2022/07/15 01:18:01;;;;;;;4.55;1.48;;;;;;;;;;509816;29;1269;-86
2022/07/15 01:18:17;;;;;;;4.32;1.60;;;;;;;;;;506558;29;1365;-86
2022/07/15 01:18:32;;;;;;;3.40;1.43;;;;;;;;;;507583;29;952;-86
2022/07/15 01:18:47;;;;;;;3.50;1.20;;;;;;;;;;508113;29;1091;-86
2022/07/15 01:19:04;;;;;;;3.30;1.30;;;;;;;;;;507985;29;1140;-86
2022/07/15 01:19:20;;;;;;;3.88;1.50;;;;;;;;;;508031;29;1632;-86
2022/07/15 01:19:35;;;;;;;4.55;1.42;;;;;;;;;;506299;29;1275;-86
2022/07/15 01:19:50;;;;;;;4.13;1.30;;;;;;;;;;510120;29;1286;-86
2022/07/15 01:20:07;;;;;;;4.07;1.40;;;;;;;;;;510058;29;1279;-86
2022/07/15 01:20:22;;;;;;;3.95;1.40;;;;;;;;;;509668;29;1341;-85
2022/07/15 01:20:40;;;;;;;3.05;1.42;;;;;;;;;;508172;29;790;-86
2022/07/15 01:20:55;;;;;;;3.35;1.45;;;;;;;;;;508295;29;862;-85
2022/07/15 01:21:10;;;;;;;3.90;1.42;;;;;;;;;;508143;29;1305;-85
2022/07/15 01:21:26;;;;;;;3.80;1.40;;;;;;;;;;507859;29;821;-85
2022/07/15 01:21:41;;;;;;;3.27;1.40;;;;;;;;;;508083;29;782;-86
2022/07/15 01:21:57;;;;;;;2.90;1.50;;;;;;;;;;508191;29;1031;-86
2022/07/15 01:22:12;;;;;;;3.30;1.33;;;;;;;;;;507572;29;1253;-86
2022/07/15 01:22:27;;;;;;;3.47;1.27;;;;;;;;;;507941;29;1279;-86
2022/07/15 01:22:43;;;;;;;3.28;1.30;;;;;;;;;;507855;29;806;-85
2022/07/15 01:22:59;;;;;;;3.90;1.30;;;;;;;;;;508112;29;869;-86
2022/07/15 01:23:15;;;;;;;5.85;1.50;;;;;;;;;;510001;29;1598;-86
2022/07/15 01:23:31;;;;;;;5.85;1.50;;;;;;;;;;511912;29;1200;-85
2022/07/15 01:23:46;;;;;;;3.87;1.50;;;;;;;;;;511916;29;1443;-86
2022/07/15 01:24:02;;;;;;;3.25;1.50;;;;;;;;;;512057;29;810;-85
2022/07/15 01:24:17;;;;;;;3.67;1.50;;;;;;;;;;512045;29;992;-86
2022/07/15 01:24:33;;;;;;;3.92;1.50;;;;;;;;;;512008;29;801;-85
2022/07/15 01:24:50;;;;;;;3.67;1.40;;;;;;;;;;509910;29;1356;-85
2022/07/15 01:25:06;;;;;;;3.42;1.50;;;;;;;;;;510216;29;1102;-86
2022/07/15 01:25:21;;;;;;;2.95;1.50;;;;;;;;;;510114;29;912;-86
2022/07/15 01:25:37;;;;;;;2.75;1.35;;;;;;;;;;510181;29;1181;-86
2022/07/15 01:25:53;;;;;;;2.60;1.30;;;;;;;;;;510268;29;797;-86
2022/07/15 01:26:11;;;;;;;2.80;1.40;;;;;;;;;;510061;29;1323;-86
2022/07/15 01:26:26;;;;;;;4.05;1.50;;;;;;;;;;510187;29;1325;-86
2022/07/15 01:26:41;;;;;;;5.07;1.60;;;;;;;;;;511202;29;857;-86
2022/07/15 01:26:57;;;;;;;4.82;1.50;;;;;;;;;;511885;29;873;-86
2022/07/15 01:27:12;;;;;;;3.93;1.50;;;;;;;;;;511931;29;1072;-85
2022/07/15 01:27:28;;;;;;;3.17;1.35;;;;;;;;;;509275;29;1258;-86
2022/07/15 01:27:43;;;;;;;3.20;1.40;;;;;;;;;;508136;29;1179;-85
2022/07/15 01:27:59;;;;;;;3.80;1.50;;;;;;;;;;508842;29;849;-86
2022/07/15 01:28:15;;;;;;;4.07;1.48;;;;;;;;;;508054;29;1246;-86
2022/07/15 01:28:31;;;;;;;4.20;1.50;;;;;;;;;;508228;29;940;-86
2022/07/15 01:28:47;;;;;;;2.97;1.35;;;;;;;;;;508195;29;940;-86
2022/07/15 01:29:02;;;;;;;2.95;1.45;;;;;;;;;;506904;29;1504;-86
2022/07/15 01:29:18;;;;;;;3.93;1.60;;;;;;;;;;509054;29;1000;-86
2022/07/15 01:29:33;;;;;;;3.20;1.50;;;;;;;;;;511823;29;1360;-86
2022/07/15 01:29:49;;;;;;;2.50;1.43;;;;;;;;;;512365;29;857;-86
2022/07/15 01:30:05;;;;;;;3.38;1.45;;;;;;;;;;510002;29;1305;-86
2022/07/15 01:30:20;;;;;;;4.40;1.45;;;;;;;;;;510676;29;1430;-86
2022/07/15 01:30:36;;;;;;;3.77;1.40;;;;;;;;;;510273;29;1143;-85
2022/07/15 01:30:51;;;;;;;4.22;1.55;;;;;;;;;;510377;29;1309;-85
2022/07/15 01:31:08;;;;;;;4.40;1.50;;;;;;;;;;510282;29;1284;-85
2022/07/15 01:31:24;;;;;;;3.78;1.48;;;;;;;;;;511628;29;965;-86
2022/07/15 01:31:39;;;;;;;4.53;1.67;;;;;;;;;;510414;29;1186;-86
2022/07/15 01:31:55;;;;;;;5.10;1.60;;;;;;;;;;509992;29;1982;-86
2022/07/15 01:32:11;;;;;;;4.30;1.50;;;;;;;;;;510245;29;830;-86
2022/07/15 01:32:28;;;;;;;4.65;1.60;;;;;;;;;;509454;29;1206;-86
2022/07/15 01:32:43;;;;;;;5.07;1.50;;;;;;;;;;509223;29;1512;-86
2022/07/15 01:32:58;;;;;;;5.57;1.40;;;;;;;;;;508889;29;845;-86
2022/07/15 01:33:14;;;;;;;5.93;1.40;;;;;;;;;;508010;29;1291;-86
2022/07/15 01:33:30;;;;;;;5.30;1.58;;;;;;;;;;508686;29;841;-85
2022/07/15 01:33:46;;;;;;;4.55;1.60;;;;;;;;;;510221;29;853;-85
2022/07/15 01:34:01;;;;;;;6.47;1.40;;;;;;;;;;510275;29;892;-85
2022/07/15 01:34:17;;;;;;;6.03;1.50;;;;;;;;;;509948;29;1239;-85
2022/07/15 01:34:32;;;;;;;3.83;1.65;;;;;;;;;;509990;29;853;-86
2022/07/15 01:34:48;;;;;;;6.00;1.70;;;;;;;;;;509952;29;1294;-85
2022/07/15 01:35:04;;;;;;;5.70;1.58;;;;;;;;;;510054;29;936;-86
2022/07/15 01:35:19;;;;;;;4.60;1.60;;;;;;;;;;509732;29;1174;-86
2022/07/15 01:35:35;;;;;;;3.90;1.63;;;;;;;;;;510319;29;797;-85
2022/07/15 01:35:54;;;;;;;3.22;1.50;;;;;;;;;;510324;29;841;-86
2022/07/15 01:36:09;;;;;;;3.58;1.50;;;;;;;;;;510008;29;1027;-85
2022/07/15 01:36:25;;;;;;;5.18;1.55;;;;;;;;;;508075;29;1182;-85
2022/07/15 01:36:40;;;;;;;6.97;1.63;;;;;;;;;;510102;29;1164;-86
2022/07/15 01:36:56;;;;;;;6.90;1.73;;;;;;;;;;507935;29;1557;-86
2022/07/15 01:37:11;;;;;;;4.65;1.70;;;;;;;;;;508031;29;889;-86
2022/07/15 01:37:26;;;;;;;5.20;1.90;;;;;;;;;;507944;29;1154;-86
2022/07/15 01:37:42;;;;;;;4.97;1.90;;;;;;;;;;508578;29;1361;-85
2022/07/15 01:37:57;;;;;;;4.18;1.63;;;;;;;;;;507974;29;868;-85
2022/07/15 01:38:13;;;;;;;5.13;1.70;;;;;;;;;;508159;29;781;-85
2022/07/15 01:38:28;;;;;;;5.47;1.80;;;;;;;;;;508225;29;1230;-86
2022/07/15 01:38:44;;;;;;;4.27;1.80;;;;;;;;;;510177;29;1242;-86
2022/07/15 01:38:59;;;;;;;4.60;1.80;;;;;;;;;;510225;29;912;-86
2022/07/15 01:39:15;;;;;;;5.37;1.73;;;;;;;;;;510405;29;976;-86
2022/07/15 01:39:30;;;;;;;4.75;1.73;;;;;;;;;;512226;29;888;-86
2022/07/15 01:39:45;;;;;;;4.73;1.87;;;;;;;;;;512214;29;968;-86
2022/07/15 01:40:01;;;;;;;4.87;1.73;;;;;;;;;;512026;29;1019;-85
2022/07/15 01:40:16;;;;;;;5.30;1.75;;;;;;;;;;509971;28;1313;-85
2022/07/15 01:40:31;;;;;;;4.40;1.97;;;;;;;;;;510024;29;1082;-85
2022/07/15 01:40:47;;;;;;;4.27;2.00;;;;;;;;;;510055;29;936;-86
2022/07/15 01:41:03;;;;;;;4.97;1.83;;;;;;;;;;507847;29;1304;-85
2022/07/15 01:41:18;;;;;;;4.72;1.70;;;;;;;;;;508049;29;1036;-85
2022/07/15 01:41:33;;;;;;;4.63;1.80;;;;;;;;;;508025;29;980;-85
2022/07/15 01:41:49;;;;;;;4.40;1.63;;;;;;;;;;508104;29;1042;-85